Time;durP1;ratioP1;P1;durP2;ratioP2;P2;SDS_P1;SDS_P2;PMS_P1;PMS_P2;Temp;Humidity;BMP_temperature;BMP_pressure;BME280_temperature;BME280_humidity;BME280_pressure;Samples;Min_cycle;Max_cycle;Signal;HPM_P1;HPM_P2
2022/09/08 00:01:36;;;;;;;8.13;3.93;;;;;;;-141.28;100.00;51305.84;5102041;28;20573;-74
2022/09/08 00:04:05;;;;;;;5.03;3.90;;;;;;;-141.28;100.00;51315.66;5097366;28;20278;-75
2022/09/08 00:06:32;;;;;;;7.97;4.30;;;;;;;-141.28;100.00;51319.59;5097343;28;20731;-74
2022/09/08 00:09:00;;;;;;;5.67;3.80;;;;;;;-141.28;100.00;51299.97;5102213;28;20808;-75
2022/09/08 00:11:30;;;;;;;7.90;4.10;;;;;;;-141.28;100.00;51276.41;5112245;28;20301;-73
2022/09/08 00:13:59;;;;;;;5.57;4.13;;;;;;;-141.28;100.00;51264.63;5091099;28;20232;-75
2022/09/08 00:16:27;;;;;;;8.33;4.43;;;;;;;-141.28;100.00;51296.03;5113833;28;20252;-75
2022/09/08 00:18:54;;;;;;;6.17;4.33;;;;;;;-141.28;100.00;51256.78;5114477;28;20277;-73
2022/09/08 00:21:22;;;;;;;4.67;4.13;;;;;;;-141.28;100.00;51225.34;5096686;28;20219;-74
2022/09/08 00:23:50;;;;;;;7.23;4.50;;;;;;;-141.28;100.00;51229.28;5103836;28;20273;-76
2022/09/08 00:26:18;;;;;;;6.03;4.17;;;;;;;-141.28;100.00;51197.88;5112605;28;20195;-75
2022/09/08 00:28:47;;;;;;;10.40;4.27;;;;;;;-141.28;100.00;51193.94;5113996;28;20218;-74
2022/09/08 00:31:14;;;;;;;6.83;4.17;;;;;;;-141.28;100.00;51221.44;5095519;28;20207;-74
2022/09/08 00:33:44;;;;;;;8.13;3.93;;;;;;;-141.28;100.00;51248.91;5102933;28;20195;-76
2022/09/08 00:36:15;;;;;;;7.73;3.90;;;;;;;-141.28;100.00;51307.81;5090073;28;20195;-73
2022/09/08 00:38:42;;;;;;;7.57;4.20;;;;;;;-141.28;100.00;51347.09;5075693;28;20191;-75
2022/09/08 00:41:12;;;;;;;5.97;3.67;;;;;;;-141.28;100.00;51358.88;5097072;28;20634;-77
2022/09/08 00:43:41;;;;;;;6.00;3.30;;;;;;;-141.28;100.00;51358.88;5097272;28;20705;-78
2022/09/08 00:46:20;;;;;;;3.57;3.13;;;;;;;-141.28;100.00;51386.34;5101745;28;20292;-78
2022/09/08 00:48:54;;;;;;;5.20;3.30;;;;;;;-141.28;100.00;51364.75;5103748;28;20202;-76
2022/09/08 00:51:25;;;;;;;6.47;3.00;;;;;;;-141.28;100.00;51406.00;5111279;28;20230;-75
2022/09/08 00:53:55;;;;;;;5.87;3.40;;;;;;;-141.28;100.00;51347.09;5075419;28;20670;-75
2022/09/08 00:56:24;;;;;;;3.70;3.17;;;;;;;-141.28;100.00;51313.72;5102964;28;20251;-76
2022/09/08 00:58:51;;;;;;;7.63;3.87;;;;;;;-141.28;100.00;51337.28;5091200;28;20553;-75
2022/09/08 01:01:19;;;;;;;9.57;4.23;;;;;;;-141.28;100.00;51296.03;5095933;28;20199;-78
2022/09/08 01:03:47;;;;;;;11.93;4.60;;;;;;;-141.28;100.00;51321.56;5105031;28;20206;-75
2022/09/08 01:15:07;;;;;;;9.90;4.73;;;;;;;-141.28;100.00;51354.94;5083968;28;20249;-74
2022/09/08 01:17:34;;;;;;;12.00;5.90;;;;;;;-141.28;100.00;51313.72;5083150;28;20200;-76
2022/09/08 01:20:03;;;;;;;11.93;6.00;;;;;;;-141.28;100.00;51231.25;5078263;28;20192;-76
2022/09/08 01:22:53;;;;;;;15.40;5.67;;;;;;;-141.28;100.00;51252.84;5085865;28;20228;-78
2022/09/08 01:25:36;;;;;;;12.70;5.33;;;;;;;-141.28;100.00;51205.72;5096724;28;20247;-77
2022/09/08 01:28:10;;;;;;;12.40;5.20;;;;;;;-141.28;100.00;51190.03;5113510;28;20195;-78
2022/09/08 01:30:38;;;;;;;15.37;5.20;;;;;;;-141.28;100.00;51158.59;5093948;28;20200;-77
2022/09/08 01:33:10;;;;;;;15.80;5.57;;;;;;;-141.28;100.00;51099.72;5080662;28;20211;-79
2022/09/08 01:35:39;;;;;;;25.67;5.20;;;;;;;-141.28;100.00;51084.00;5087087;28;20187;-75
2022/09/08 01:38:07;;;;;;;8.67;4.80;;;;;;;-141.28;100.00;51080.06;5098067;28;20257;-76
2022/09/08 01:40:35;;;;;;;9.70;4.70;;;;;;;-141.28;100.00;51052.59;5093051;28;20199;-76
2022/09/08 01:43:02;;;;;;;10.23;4.60;;;;;;;-141.28;100.00;51036.88;5100564;28;20251;-77
2022/09/08 01:45:31;;;;;;;8.87;4.97;;;;;;;-141.28;100.00;51029.03;5072847;28;20220;-76
2022/09/08 01:47:59;;;;;;;6.63;4.83;;;;;;;-141.28;100.00;50966.22;5072614;28;20635;-78
2022/09/08 01:50:26;;;;;;;14.73;4.80;;;;;;;-141.28;100.00;50997.63;5072753;28;20261;-78
2022/09/08 01:52:53;;;;;;;11.83;4.67;;;;;;;-141.28;100.00;50993.69;5078682;28;20287;-79
2022/09/08 01:55:23;;;;;;;9.10;4.90;;;;;;;-141.28;100.00;50974.06;5093404;28;20204;-77
2022/09/08 01:57:51;;;;;;;9.50;5.07;;;;;;;-141.28;100.00;50983.88;5073262;28;20647;-76
2022/09/08 02:00:18;;;;;;;8.43;5.10;;;;;;;-141.28;100.00;50968.19;5080856;28;20199;-76
2022/09/08 02:02:48;;;;;;;10.33;5.47;;;;;;;-141.28;100.00;50938.72;5107327;28;20766;-75
2022/09/08 02:05:15;;;;;;;9.30;4.53;;;;;;;-141.28;100.00;50897.50;5103074;28;20207;-75
2022/09/08 02:07:42;;;;;;;7.40;4.93;;;;;;;-141.28;100.00;50875.91;5079449;28;20199;-78
2022/09/08 02:10:09;;;;;;;8.33;4.63;;;;;;;-141.28;100.00;50856.28;5083461;28;20200;-76
2022/09/08 02:12:38;;;;;;;11.53;5.30;;;;;;;-141.28;100.00;50765.97;5088446;28;20270;-77
2022/09/08 02:15:06;;;;;;;14.37;5.13;;;;;;;-141.28;100.00;50730.66;5092341;28;20211;-77
2022/09/08 02:17:34;;;;;;;13.07;5.13;;;;;;;-141.28;100.00;50746.34;5092133;28;20191;-74
2022/09/08 02:20:07;;;;;;;4.80;4.23;;;;;;;-141.28;100.00;50765.97;5087763;28;20632;-75
2022/09/08 02:22:34;;;;;;;4.73;3.50;;;;;;;-141.28;100.00;50785.59;5105634;28;20226;-77
2022/09/08 02:25:02;;;;;;;8.50;3.93;;;;;;;-141.28;100.00;50850.38;5099037;28;20195;-75
2022/09/08 02:27:30;;;;;;;5.40;3.60;;;;;;;-141.28;100.00;50938.72;5090055;28;20195;-78
2022/09/08 02:29:58;;;;;;;6.47;4.20;;;;;;;-141.28;100.00;50970.13;5072260;28;20592;-77
2022/09/08 02:32:24;;;;;;;7.67;4.43;;;;;;;-141.28;100.00;51001.56;5072802;28;20204;-75
2022/09/08 02:34:52;;;;;;;9.97;4.60;;;;;;;-141.28;100.00;51036.88;5073002;28;20192;-76
2022/09/08 02:37:20;;;;;;;11.67;4.37;;;;;;;-141.28;100.00;51131.13;5092534;28;20195;-75
2022/09/08 02:39:48;;;;;;;6.33;4.47;;;;;;;-141.28;100.00;51095.78;5092615;28;20195;-77
2022/09/08 02:42:16;;;;;;;15.23;4.57;;;;;;;-141.28;100.00;51162.53;5094421;28;20234;-75
2022/09/08 02:44:44;;;;;;;12.33;5.50;;;;;;;-141.28;100.00;51170.38;5084442;28;20725;-76
2022/09/08 02:47:12;;;;;;;8.10;4.40;;;;;;;-141.28;100.00;51127.19;5087351;28;20195;-75
2022/09/08 02:49:39;;;;;;;10.23;4.60;;;;;;;-141.28;100.00;51099.72;5111046;28;20198;-76
2022/09/08 02:52:08;;;;;;;7.23;4.37;;;;;;;-141.28;100.00;51048.66;5092600;28;20206;-76
2022/09/08 02:54:37;;;;;;;5.37;3.97;;;;;;;-141.28;100.00;51029.03;5078484;28;20749;-73
2022/09/08 02:57:04;;;;;;;8.27;4.73;;;;;;;-141.28;100.00;50997.63;5071881;28;20662;-77
2022/09/08 02:59:31;;;;;;;8.40;4.50;;;;;;;-141.28;100.00;51019.22;5081489;28;20282;-77
2022/09/08 03:01:59;;;;;;;8.37;4.60;;;;;;;-141.28;100.00;50956.41;5075102;28;20227;-76
2022/09/08 03:04:26;;;;;;;7.30;4.50;;;;;;;-141.28;100.00;50981.91;5082617;28;20233;-77
2022/09/08 03:06:54;;;;;;;7.33;4.97;;;;;;;-141.28;100.00;50942.66;5092863;28;20203;-75
2022/09/08 03:09:21;;;;;;;6.87;4.33;;;;;;;-141.28;100.00;50970.13;5086521;28;20259;-77
2022/09/08 03:11:49;;;;;;;9.23;4.97;;;;;;;-141.28;100.00;50915.16;5092451;28;20196;-77
2022/09/08 03:14:17;;;;;;;5.20;4.70;;;;;;;-141.28;100.00;50879.84;5091323;28;20263;-75
2022/09/08 03:16:46;;;;;;;8.00;5.30;;;;;;;-141.28;100.00;50828.78;5082926;28;20200;-76
2022/09/08 03:19:13;;;;;;;9.80;5.00;;;;;;;-141.28;100.00;50758.13;5078237;28;20199;-77
2022/09/08 03:21:41;;;;;;;10.37;4.70;;;;;;;-141.28;100.00;50750.28;5072557;28;20199;-74
2022/09/08 03:24:08;;;;;;;6.00;4.37;;;;;;;-141.28;100.00;50711.00;5071465;28;20227;-74
2022/09/08 03:26:37;;;;;;;14.27;4.90;;;;;;;-141.28;100.00;50648.19;5071011;28;20204;-75
2022/09/08 03:29:06;;;;;;;38.83;7.83;;;;;;;-141.28;100.00;50673.72;5087173;28;20252;-75
2022/09/08 03:31:35;;;;;;;26.30;6.00;;;;;;;-141.28;100.00;50644.28;5095433;28;20558;-77
2022/09/08 03:34:02;;;;;;;17.77;6.70;;;;;;;-141.28;100.00;50646.22;5099848;28;20278;-76
2022/09/08 03:36:30;;;;;;;10.73;6.20;;;;;;;-141.28;100.00;50569.69;5089759;28;20223;-77
2022/09/08 03:38:57;;;;;;;8.37;5.23;;;;;;;-141.28;100.00;50538.28;5071282;28;20227;-77
2022/09/08 03:41:24;;;;;;;13.23;5.20;;;;;;;-141.28;100.00;50518.66;5071178;28;20192;-76
2022/09/08 03:43:51;;;;;;;9.57;5.20;;;;;;;-141.28;100.00;50506.88;5071051;28;20390;-76
2022/09/08 03:46:20;;;;;;;15.10;5.67;;;;;;;-141.28;100.00;50504.91;5081838;28;20245;-76
2022/09/08 03:48:47;;;;;;;8.10;5.30;;;;;;;-141.28;100.00;50487.25;5098543;28;20207;-75
2022/09/08 03:51:17;;;;;;;8.83;5.50;;;;;;;-141.28;100.00;50463.69;5104371;28;20196;-75
2022/09/08 03:53:44;;;;;;;10.40;5.10;;;;;;;-141.28;100.00;50444.06;5091320;28;20270;-76
2022/09/08 03:56:14;;;;;;;11.27;5.57;;;;;;;-141.28;100.00;50428.34;5095446;28;20201;-76
2022/09/08 03:58:41;;;;;;;15.20;5.67;;;;;;;-141.28;100.00;50436.19;5068480;28;20282;-75
2022/09/08 04:01:10;;;;;;;22.77;6.77;;;;;;;-141.28;100.00;50408.72;5083723;28;20623;-77
2022/09/08 04:03:39;;;;;;;10.80;5.20;;;;;;;-141.28;100.00;50361.63;5077973;28;20230;-78
2022/09/08 04:06:08;;;;;;;9.07;5.50;;;;;;;-141.28;100.00;50338.06;5091203;28;20665;-75
2022/09/08 04:08:35;;;;;;;11.47;5.40;;;;;;;-141.28;100.00;50243.84;5084488;28;20192;-75
2022/09/08 04:11:03;;;;;;;10.97;5.03;;;;;;;-141.28;100.00;50216.38;5073075;28;20206;-77
2022/09/08 04:13:30;;;;;;;6.87;4.90;;;;;;;-141.28;100.00;50188.91;5072515;28;20200;-75
2022/09/08 04:15:59;;;;;;;8.83;5.03;;;;;;;-141.28;100.00;50145.72;5071745;28;20262;-75
2022/09/08 04:18:27;;;;;;;14.67;5.20;;;;;;;-141.28;100.00;50159.44;5079754;28;20650;-76
2022/09/08 04:21:02;;;;;;;8.37;4.87;;;;;;;-141.28;100.00;50153.56;5076666;28;20747;-74
2022/09/08 04:23:30;;;;;;;11.63;5.53;;;;;;;-141.28;100.00;50167.31;5081045;28;20250;-76
2022/09/08 04:25:59;;;;;;;14.53;5.33;;;;;;;-141.28;100.00;50147.69;5088289;28;20239;-77
2022/09/08 04:28:26;;;;;;;10.77;5.53;;;;;;;-141.28;100.00;50145.72;5071128;28;20279;-77
2022/09/08 04:30:54;;;;;;;10.43;5.00;;;;;;;-141.28;100.00;50131.97;5068791;28;20257;-75
2022/09/08 04:33:21;;;;;;;10.87;4.47;;;;;;;-141.28;100.00;50122.16;5085246;28;20203;-76
2022/09/08 04:35:48;;;;;;;11.77;4.73;;;;;;;-141.28;100.00;50122.16;5085213;28;20199;-77
2022/09/08 04:38:19;;;;;;;12.97;5.20;;;;;;;-141.28;100.00;50143.75;5114569;28;20203;-75
2022/09/08 04:40:46;;;;;;;41.40;7.33;;;;;;;-141.28;100.00;50171.22;5110293;28;20616;-75
2022/09/08 04:43:13;;;;;;;29.90;6.43;;;;;;;-141.28;100.00;50236.00;5089139;28;20231;-76
2022/09/08 04:45:40;;;;;;;13.13;5.60;;;;;;;-141.28;100.00;50310.59;5076944;28;20291;-73
2022/09/08 04:48:09;;;;;;;13.80;5.47;;;;;;;-141.28;100.00;50393.03;5085769;28;20200;-74
2022/09/08 04:50:36;;;;;;;18.47;5.90;;;;;;;-141.28;100.00;50369.47;5087857;28;20246;-78
2022/09/08 04:53:04;;;;;;;15.87;5.07;;;;;;;-141.28;100.00;50359.66;5093781;28;20203;-76
2022/09/08 04:55:33;;;;;;;10.90;5.17;;;;;;;-141.28;100.00;50375.34;5081036;28;20196;-76
2022/09/08 04:58:00;;;;;;;16.40;5.00;;;;;;;-141.28;100.00;50432.28;5073877;28;20643;-74
2022/09/08 05:00:27;;;;;;;13.13;5.43;;;;;;;-141.28;100.00;50471.53;5107814;28;20198;-73
2022/09/08 05:02:56;;;;;;;20.43;6.00;;;;;;;-141.28;100.00;50497.06;5103145;28;20234;-77
2022/09/08 05:05:25;;;;;;;12.93;5.37;;;;;;;-141.28;100.00;50563.78;5093321;28;20202;-74
2022/09/08 05:07:53;;;;;;;18.03;5.53;;;;;;;-141.28;100.00;50610.91;5093162;28;20624;-75
2022/09/08 05:10:20;;;;;;;20.17;5.80;;;;;;;-141.28;100.00;50618.75;5079968;28;20315;-75
2022/09/08 05:12:49;;;;;;;24.53;4.97;;;;;;;-141.28;100.00;50738.50;5087925;28;20209;-74
2022/09/08 05:15:19;;;;;;;9.07;4.50;;;;;;;-141.28;100.00;50813.09;5106469;28;20195;-74
2022/09/08 05:17:46;;;;;;;12.00;4.40;;;;;;;-141.28;100.00;50946.59;5093420;28;20261;-74
2022/09/08 05:20:14;;;;;;;10.20;5.07;;;;;;;-141.28;100.00;51040.81;5066455;28;20273;-76
2022/09/08 05:22:42;;;;;;;8.60;4.83;;;;;;;-141.28;100.00;51107.56;5090061;28;20283;-76
2022/09/08 05:25:11;;;;;;;9.10;4.57;;;;;;;-141.28;100.00;51231.25;5091777;28;20257;-75
2022/09/08 05:27:38;;;;;;;12.07;4.93;;;;;;;-141.28;100.00;51406.00;5105182;28;20214;-76
2022/09/08 05:30:08;;;;;;;12.57;6.10;;;;;;;-141.28;100.00;51488.44;5106773;28;20188;-76
2022/09/08 05:32:35;;;;;;;15.40;5.23;;;;;;;-141.28;100.00;51592.50;5105633;28;20247;-76
2022/09/08 05:35:02;;;;;;;10.97;4.50;;;;;;;-141.28;100.00;51704.44;5074525;28;20202;-76
2022/09/08 05:37:31;;;;;;;10.60;4.87;;;;;;;-141.28;100.00;51804.59;5105585;28;20205;-77
2022/09/08 05:39:59;;;;;;;12.97;4.57;;;;;;;-141.28;100.00;51857.59;5106138;28;20690;-75
2022/09/08 05:42:27;;;;;;;8.73;4.70;;;;;;;-141.28;100.00;51798.69;5105560;28;20226;-74
2022/09/08 05:44:55;;;;;;;8.80;4.57;;;;;;;-141.28;100.00;51755.50;5099503;28;20230;-76
2022/09/08 05:47:25;;;;;;;9.80;4.17;;;;;;;-141.28;100.00;51751.56;5112093;28;20195;-76
2022/09/08 05:49:52;;;;;;;5.93;4.40;;;;;;;-141.28;100.00;51712.28;5097596;28;20219;-76
2022/09/08 05:52:20;;;;;;;11.30;5.07;;;;;;;-141.28;100.00;51724.06;5087462;28;20230;-75
2022/09/08 05:54:46;;;;;;;16.80;4.87;;;;;;;-141.28;100.00;51696.59;5100815;28;20195;-73
2022/09/08 05:57:16;;;;;;;13.80;4.87;;;;;;;-141.28;100.00;51623.94;5110458;28;20199;-75
2022/09/08 05:59:43;;;;;;;8.83;4.13;;;;;;;-141.28;100.00;51621.97;5082938;28;20240;-77
2022/09/08 06:02:12;;;;;;;6.13;4.00;;;;;;;-141.28;100.00;51582.69;5077331;28;20310;-76
2022/09/08 06:04:41;;;;;;;35.30;6.87;;;;;;;-141.28;100.00;51504.16;5100489;28;20241;-74
2022/09/08 06:07:07;;;;;;;10.93;4.97;;;;;;;-141.28;100.00;51484.53;5110181;28;20199;-74
2022/09/08 06:09:35;;;;;;;14.93;4.50;;;;;;;-141.28;100.00;51468.81;5110385;28;20225;-74
2022/09/08 06:12:03;;;;;;;6.53;4.33;;;;;;;-141.28;100.00;51429.53;5092378;28;20208;-76
2022/09/08 06:14:33;;;;;;;7.17;4.57;;;;;;;-141.28;100.00;51402.06;5072366;28;20716;-77
2022/09/08 06:17:02;;;;;;;8.57;4.40;;;;;;;-141.28;100.00;51382.44;5072093;28;20208;-76
2022/09/08 06:19:29;;;;;;;9.60;4.50;;;;;;;-141.28;100.00;51378.50;5072156;28;20204;-76
2022/09/08 06:21:58;;;;;;;11.03;4.77;;;;;;;-141.28;100.00;51315.66;5086883;28;20636;-76
2022/09/08 06:24:27;;;;;;;13.53;4.60;;;;;;;-141.28;100.00;51327.44;5083930;28;20224;-77
2022/09/08 06:27:00;;;;;;;15.37;4.50;;;;;;;-141.28;100.00;51260.69;5086222;28;20206;-76
2022/09/08 06:29:58;;;;;;;7.83;4.30;;;;;;;-141.28;100.00;51233.22;5072422;28;20227;-75
2022/09/08 06:32:30;;;;;;;11.47;4.03;;;;;;;-141.28;100.00;51303.88;5069524;28;20305;-75
2022/09/08 06:35:08;;;;;;;6.73;4.40;;;;;;;-141.28;100.00;51268.56;5085602;28;20213;-75
2022/09/08 06:37:50;;;;;;;9.83;4.63;;;;;;;-141.28;100.00;51256.78;5071475;28;20273;-76
2022/09/08 06:40:28;;;;;;;8.50;4.40;;;;;;;-141.28;100.00;51178.25;5085885;28;20199;-76
2022/09/08 06:43:03;;;;;;;16.53;4.77;;;;;;;-141.28;100.00;51093.81;5081793;28;20243;-77
2022/09/08 06:45:35;;;;;;;10.03;5.10;;;;;;;-141.28;100.00;50970.13;5072857;28;20199;-77
2022/09/08 06:48:22;;;;;;;7.70;5.00;;;;;;;-141.28;100.00;50860.19;5100313;28;20653;-77
2022/09/08 06:51:01;;;;;;;8.57;4.50;;;;;;;-141.28;100.00;50970.13;5092941;28;20219;-75
2022/09/08 06:53:35;;;;;;;9.67;4.83;;;;;;;-141.28;100.00;50856.28;5091505;28;20226;-77
2022/09/08 06:56:12;;;;;;;7.77;4.60;;;;;;;-141.28;100.00;50750.28;5075934;28;20248;-74
2022/09/08 06:58:44;;;;;;;6.47;4.60;;;;;;;-141.28;100.00;50571.63;5083033;28;20202;-77
2022/09/08 07:01:20;;;;;;;10.13;5.13;;;;;;;-141.28;100.00;50502.94;5072757;28;20200;-75
2022/09/08 07:04:04;;;;;;;9.10;4.57;;;;;;;-141.28;100.00;50467.59;5071561;28;20259;-74
2022/09/08 07:06:36;;;;;;;9.27;4.50;;;;;;;-141.28;100.00;50328.25;5071800;28;20275;-78
2022/09/08 07:09:20;;;;;;;9.60;4.37;;;;;;;-141.28;100.00;50234.03;5074815;28;20207;-75
2022/09/08 07:11:58;;;;;;;19.73;4.80;;;;;;;-141.28;100.00;50130.00;5092414;28;20219;-77
2022/09/08 07:15:05;;;;;;;7.93;4.30;;;;;;;-141.28;100.00;50131.97;5095470;28;20210;-75
2022/09/08 07:17:39;;;;;;;9.27;4.80;;;;;;;-141.28;100.00;50122.16;5064425;28;20222;-76
2022/09/08 07:20:12;;;;;;;6.67;3.80;;;;;;;-141.28;100.00;50039.72;5095464;28;20203;-74
2022/09/08 07:22:46;;;;;;;12.63;4.13;;;;;;;-141.28;100.00;49949.44;5091245;28;20210;-76
2022/09/08 07:25:36;;;;;;;8.83;4.33;;;;;;;-141.28;100.00;50318.44;5090774;28;20223;-76
2022/09/08 07:28:11;;;;;;;6.33;3.93;;;;;;;-141.28;100.00;50342.00;5091717;28;20203;-74
2022/09/08 07:30:40;;;;;;;10.97;4.20;;;;;;;-141.28;100.00;50283.09;5086970;28;20198;-78
2022/09/08 07:33:19;;;;;;;8.67;3.67;;;;;;;-141.28;100.00;50237.97;5095302;28;20677;-74
2022/09/08 07:35:56;;;;;;;6.90;4.00;;;;;;;-141.28;100.00;50216.38;5070554;28;20204;-78
2022/09/08 07:38:35;;;;;;;7.77;3.17;;;;;;;-141.28;100.00;50277.22;5088804;28;20214;-75
2022/09/08 07:41:06;;;;;;;7.80;3.47;;;;;;;-141.28;100.00;50216.38;5091233;28;20191;-76
2022/09/08 07:43:33;;;;;;;6.07;3.90;;;;;;;-141.28;100.00;50190.84;5071125;28;20586;-77
2022/09/08 07:46:32;;;;;;;7.20;3.83;;;;;;;-141.28;100.00;50184.97;5098815;28;20647;-74
2022/09/08 07:49:08;;;;;;;11.13;4.03;;;;;;;-141.28;100.00;50128.06;5086599;28;20290;-75
2022/09/08 07:51:43;;;;;;;7.27;3.57;;;;;;;-141.28;100.00;49965.16;5080877;28;20205;-73
2022/09/08 07:54:36;;;;;;;9.40;4.10;;;;;;;-141.28;100.00;49851.31;5071016;28;20210;-76
2022/09/08 07:57:13;;;;;;;6.97;3.97;;;;;;;-141.28;100.00;49745.34;5084677;28;20207;-77
2022/09/08 07:59:48;;;;;;;10.00;3.80;;;;;;;-141.28;100.00;49739.47;5071037;28;20203;-75
2022/09/08 08:02:33;;;;;;;7.50;3.70;;;;;;;-141.28;100.00;49666.84;5078090;28;20228;-75
2022/09/08 08:05:08;;;;;;;6.90;3.83;;;;;;;-141.28;100.00;49537.34;5077448;28;20224;-77
2022/09/08 08:07:43;;;;;;;6.13;3.60;;;;;;;-141.28;100.00;49564.81;5085454;28;20290;-76
2022/09/08 08:10:19;;;;;;;10.23;4.20;;;;;;;-141.28;100.00;49462.78;5095636;28;20199;-74
2022/09/08 08:12:54;;;;;;;11.33;4.17;;;;;;;-141.28;100.00;49602.09;5082424;28;20200;-76
2022/09/08 08:15:24;;;;;;;7.87;4.17;;;;;;;-141.28;100.00;49710.03;5088483;28;20221;-76
2022/09/08 08:18:01;;;;;;;6.83;3.90;;;;;;;-141.28;100.00;49721.81;5074676;28;20224;-74
2022/09/08 08:20:50;;;;;;;12.33;4.10;;;;;;;-141.28;100.00;49708.06;5074554;28;20199;-77
2022/09/08 08:23:54;;;;;;;14.70;4.33;;;;;;;-141.28;100.00;49659.00;5075965;28;20201;-76
2022/09/08 08:26:33;;;;;;;9.57;4.20;;;;;;;-141.28;100.00;49541.25;5088481;28;20658;-73
2022/09/08 08:29:19;;;;;;;12.37;4.60;;;;;;;-141.28;100.00;49439.22;5094933;28;20214;-78
2022/09/08 08:31:53;;;;;;;5.53;3.80;;;;;;;-141.28;100.00;49309.72;5092826;28;20254;-75
2022/09/08 08:34:25;;;;;;;8.47;3.70;;;;;;;-141.28;100.00;49166.47;5097001;28;20195;-76
2022/09/08 08:36:57;;;;;;;9.60;5.70;;;;;;;-141.28;100.00;49117.44;5094387;28;20199;-77
2022/09/08 08:39:26;;;;;;;15.17;4.53;;;;;;;-141.28;100.00;49133.13;5093453;28;20200;-75
2022/09/08 08:42:11;;;;;;;9.23;4.37;;;;;;;-141.28;100.00;49140.97;5094103;28;20200;-74
2022/09/08 08:45:13;;;;;;;6.80;4.60;;;;;;;-141.28;100.00;49011.47;5083503;28;20218;-75
2022/09/08 08:48:12;;;;;;;8.07;4.50;;;;;;;-141.28;100.00;49007.56;5093252;28;20205;-76
2022/09/08 08:51:00;;;;;;;8.87;4.20;;;;;;;-141.28;100.00;48995.78;5113306;28;20199;-75
2022/09/08 08:54:02;;;;;;;11.33;3.90;;;;;;;-141.28;100.00;49003.63;5113846;28;20202;-75
2022/09/08 08:56:34;;;;;;;7.77;4.23;;;;;;;-141.28;100.00;49011.47;5105628;28;20658;-75
2022/09/08 08:59:41;;;;;;;5.57;3.50;;;;;;;-141.28;100.00;48933.00;5095972;28;20658;-76
2022/09/08 09:02:35;;;;;;;12.53;4.07;;;;;;;-141.28;100.00;48895.72;5049940;28;20232;-78
2022/09/08 09:05:29;;;;;;;7.53;3.83;;;;;;;-141.28;100.00;48913.38;5113627;28;20226;-80
2022/09/08 09:08:37;;;;;;;7.13;4.20;;;;;;;-141.28;100.00;48882.00;5073318;28;20267;-75
2022/09/08 09:11:21;;;;;;;8.33;4.87;;;;;;;-141.28;100.00;48862.38;5066578;28;20238;-77
2022/09/08 09:14:13;;;;;;;10.77;4.83;;;;;;;-141.28;100.00;48846.69;5079963;28;20278;-75
2022/09/08 09:16:57;;;;;;;8.20;4.10;;;;;;;-141.28;100.00;48842.75;5089486;28;20208;-74
2022/09/08 09:20:02;;;;;;;5.10;4.53;;;;;;;-141.28;100.00;48870.22;5080348;28;20199;-74
2022/09/08 09:22:44;;;;;;;7.10;4.33;;;;;;;-141.28;100.00;48856.47;5097811;28;20286;-76
2022/09/08 09:25:18;;;;;;;7.80;4.20;;;;;;;-141.28;100.00;48836.88;5096439;28;20307;-75
2022/09/08 09:27:47;;;;;;;8.60;4.40;;;;;;;-141.28;100.00;48842.75;5089037;28;20203;-77
2022/09/08 09:30:22;;;;;;;6.00;4.57;;;;;;;-141.28;100.00;48803.50;5085750;28;20196;-75
2022/09/08 09:33:30;;;;;;;9.07;4.77;;;;;;;-141.28;100.00;48811.34;5093053;28;20195;-74
2022/09/08 09:36:25;;;;;;;9.03;4.60;;;;;;;-141.28;100.00;48813.31;5070315;28;20206;-76
2022/09/08 09:39:33;;;;;;;9.83;4.80;;;;;;;-141.28;100.00;48783.91;5079520;28;20599;-76
2022/09/08 09:42:21;;;;;;;9.07;4.40;;;;;;;-141.28;100.00;48830.97;5090412;28;20203;-76
2022/09/08 09:45:17;;;;;;;9.93;4.30;;;;;;;-141.28;100.00;48811.34;5073496;28;20315;-76
2022/09/08 09:48:08;;;;;;;7.13;4.40;;;;;;;-141.28;100.00;48819.22;5089393;28;20192;-75
2022/09/08 09:51:01;;;;;;;10.77;4.70;;;;;;;-141.28;100.00;48803.50;5090150;28;20623;-75
2022/09/08 09:53:45;;;;;;;11.10;4.17;;;;;;;-141.28;100.00;48799.59;5083338;28;20289;-74
2022/09/08 09:56:57;;;;;;;6.30;4.37;;;;;;;-141.28;100.00;48778.00;5074211;28;20651;-76
2022/09/08 09:59:53;;;;;;;7.57;4.00;;;;;;;-141.28;100.00;48834.91;5054363;28;20193;-75
2022/09/08 10:02:54;;;;;;;12.07;4.60;;;;;;;-141.28;100.00;48809.41;5092381;28;20238;-76
2022/09/08 10:05:52;;;;;;;6.27;4.20;;;;;;;-141.28;100.00;48813.31;5098630;28;20223;-77
2022/09/08 10:08:49;;;;;;;8.43;4.57;;;;;;;-141.28;100.00;48827.06;5105527;28;20200;-74
2022/09/08 10:11:39;;;;;;;13.57;4.67;;;;;;;-141.28;100.00;48807.44;5079826;28;20202;-75
2022/09/08 10:14:32;;;;;;;5.33;4.03;;;;;;;-141.28;100.00;48819.22;5072774;28;20255;-74
2022/09/08 10:17:25;;;;;;;8.70;4.63;;;;;;;-141.28;100.00;48803.50;5078583;28;20720;-75
2022/09/08 10:20:44;;;;;;;8.73;4.30;;;;;;;-141.28;99.85;48779.97;5112004;28;20208;-77
2022/09/08 10:23:47;;;;;;;5.70;4.03;;;;;;;-141.28;95.14;48783.91;5010365;28;20195;-77
2022/09/08 10:26:45;;;;;;;9.07;4.30;;;;;;;-141.28;96.92;48772.13;5010188;28;20242;-75
2022/09/08 10:30:00;;;;;;;6.43;4.27;;;;;;;-141.28;95.91;48728.97;5040938;28;20210;-79
2022/09/08 10:33:06;;;;;;;5.60;4.50;;;;;;;-141.28;88.16;48742.69;5073808;28;20677;-75
2022/09/08 10:35:39;;;;;;;5.00;4.40;;;;;;;-141.28;92.52;48756.44;5099925;28;20203;-77
2022/09/08 10:38:41;;;;;;;5.97;4.53;;;;;;;-141.28;98.68;48787.81;5109878;28;20220;-76
2022/09/08 10:41:41;;;;;;;6.10;4.20;;;;;;;-141.28;94.00;48772.13;5106005;28;20290;-77
2022/09/08 10:44:39;;;;;;;11.53;4.30;;;;;;;-141.28;91.92;48768.19;5083743;28;20224;-76
2022/09/08 10:47:42;;;;;;;9.13;4.40;;;;;;;-141.28;96.94;48756.44;5088675;28;20241;-79
2022/09/08 10:50:28;;;;;;;8.13;4.50;;;;;;;-141.28;91.64;48748.56;5100767;28;20220;-76
2022/09/08 10:53:29;;;;;;;7.83;4.40;;;;;;;-141.28;94.79;48725.03;5080669;28;20203;-76
2022/09/08 10:56:14;;;;;;;9.40;4.33;;;;;;;-141.28;84.18;48728.97;5037532;28;20202;-76
2022/09/08 10:59:15;;;;;;;6.23;3.97;;;;;;;-141.28;87.83;48721.13;5072678;28;20647;-77
2022/09/08 11:02:12;;;;;;;8.07;4.93;;;;;;;-141.28;84.87;48740.72;5074137;28;20752;-78
2022/09/08 11:05:23;;;;;;;7.73;4.20;;;;;;;-141.28;83.97;48725.03;5098487;28;20222;-76
2022/09/08 11:08:25;;;;;;;4.83;4.27;;;;;;;-141.28;83.27;48713.25;5082944;28;20582;-75
2022/09/08 11:11:32;;;;;;;8.50;4.10;;;;;;;-141.28;80.21;48728.97;5105535;28;20203;-75
2022/09/08 11:14:04;;;;;;;8.67;4.33;;;;;;;-141.28;84.76;48717.19;5111015;28;20203;-76
2022/09/08 11:17:01;;;;;;;5.70;4.40;;;;;;;-141.28;81.48;48703.47;5071393;28;20274;-78
2022/09/08 11:19:40;;;;;;;6.47;4.33;;;;;;;-141.28;82.17;48725.03;5088993;28;20228;-77
2022/09/08 11:22:29;;;;;;;6.03;3.90;;;;;;;-141.28;84.50;48697.56;5073768;28;20357;-76
2022/09/08 11:25:14;;;;;;;7.20;4.43;;;;;;;-141.28;87.58;48705.41;5072702;28;20295;-76
2022/09/08 11:27:53;;;;;;;7.53;4.50;;;;;;;-141.28;88.20;48721.13;5071339;28;20200;-75
2022/09/08 11:30:24;;;;;;;4.60;4.20;;;;;;;-141.28;91.76;48701.50;5071362;28;20755;-75
2022/09/08 11:33:01;;;;;;;5.40;4.27;;;;;;;-141.28;93.30;48713.25;5077167;28;20208;-77
2022/09/08 11:35:45;;;;;;;4.53;3.97;;;;;;;-141.28;94.88;48707.38;5092189;28;20211;-75
2022/09/08 11:38:30;;;;;;;5.83;4.00;;;;;;;-141.28;95.36;48732.88;5093446;28;20272;-76
2022/09/08 11:41:29;;;;;;;4.47;3.93;;;;;;;-141.28;96.48;48746.63;5114696;28;20226;-75
2022/09/08 11:44:13;;;;;;;9.63;4.30;;;;;;;-141.28;94.04;48725.03;5090019;28;20582;-76
2022/09/08 11:46:57;;;;;;;4.53;4.10;;;;;;;-141.28;92.08;48728.97;5089636;28;20261;-76
2022/09/08 11:49:45;;;;;;;5.07;4.50;;;;;;;-141.28;95.74;48705.41;5095559;28;20211;-75
2022/09/08 11:52:35;;;;;;;5.73;4.20;;;;;;;-141.28;88.70;48660.28;5095073;28;20208;-77
2022/09/08 11:55:20;;;;;;;5.87;4.20;;;;;;;-141.28;85.29;48677.94;5095171;28;20673;-77
2022/09/08 11:58:08;;;;;;;5.53;4.40;;;;;;;-141.28;81.81;48644.59;5086253;28;20200;-75